Time;durP1;ratioP1;P1;durP2;ratioP2;P2;SDS_P1;SDS_P2;PMS_P1;PMS_P2;Temp;Humidity;BMP_temperature;BMP_pressure;BME280_temperature;BME280_humidity;BME280_pressure;Samples;Min_cycle;Max_cycle;Signal;HPM_P1;HPM_P2
2020/12/30 00:01:25;;;;;;;3.67;2.47;;;4.20;90.30;;;;;;5050809;28;20458;-73
2020/12/30 00:03:51;;;;;;;7.43;3.13;;;4.20;90.50;;;;;;5051492;28;20486;-74
2020/12/30 00:06:17;;;;;;;5.67;3.20;;;4.10;90.10;;;;;;5052562;28;20052;-74
2020/12/30 00:08:44;;;;;;;7.87;4.20;;;4.10;90.10;;;;;;5051424;28;20025;-74
2020/12/30 00:11:10;;;;;;;10.37;5.07;;;4.00;90.10;;;;;;5052714;28;20033;-74
2020/12/30 00:13:36;;;;;;;4.13;2.60;;;3.90;90.30;;;;;;5052313;28;20031;-74
2020/12/30 00:16:01;;;;;;;4.67;2.40;;;4.00;90.50;;;;;;5051307;28;20025;-74
2020/12/30 00:18:27;;;;;;;3.80;2.00;;;4.00;90.40;;;;;;5050642;28;20087;-74
2020/12/30 00:20:53;;;;;;;4.07;1.77;;;4.10;90.30;;;;;;5051026;28;20036;-73
2020/12/30 00:23:18;;;;;;;5.53;2.03;;;4.00;90.20;;;;;;5051262;28;20083;-74
2020/12/30 00:25:44;;;;;;;3.97;1.60;;;4.10;90.20;;;;;;5052484;28;20068;-74
2020/12/30 00:28:09;;;;;;;1.77;1.13;;;4.10;90.10;;;;;;5052485;28;20044;-74
2020/12/30 00:30:35;;;;;;;2.70;1.20;;;4.20;90.10;;;;;;5051831;28;20075;-74
2020/12/30 00:33:01;;;;;;;3.73;1.00;;;4.10;90.00;;;;;;5051272;28;20053;-74
2020/12/30 00:35:26;;;;;;;3.07;1.30;;;4.10;90.10;;;;;;5051889;28;20480;-74
2020/12/30 00:37:52;;;;;;;5.77;1.00;;;4.10;90.20;;;;;;5051518;28;20033;-74
2020/12/30 00:40:18;;;;;;;1.87;1.20;;;4.10;90.20;;;;;;5051094;28;20025;-74
2020/12/30 00:42:43;;;;;;;2.83;1.07;;;4.20;90.10;;;;;;5050390;28;20029;-74
2020/12/30 00:45:10;;;;;;;4.50;1.30;;;4.20;90.00;;;;;;5052306;28;20367;-74
2020/12/30 00:47:36;;;;;;;4.00;1.33;;;4.30;90.00;;;;;;5050467;28;20036;-74
2020/12/30 00:50:03;;;;;;;2.07;0.73;;;4.30;90.00;;;;;;5052134;28;20454;-74
2020/12/30 00:52:29;;;;;;;2.13;1.00;;;4.30;89.80;;;;;;5050398;28;20466;-74
2020/12/30 00:54:55;;;;;;;3.67;1.33;;;4.30;89.70;;;;;;5050685;28;20082;-74
2020/12/30 00:57:21;;;;;;;1.63;0.87;;;4.40;89.70;;;;;;5052254;28;20029;-74
2020/12/30 00:59:46;;;;;;;2.37;0.90;;;4.40;89.80;;;;;;5056041;28;20025;-74
2020/12/30 01:02:12;;;;;;;2.20;1.10;;;4.40;89.80;;;;;;5054854;28;20039;-73
2020/12/30 01:04:38;;;;;;;2.80;1.10;;;4.40;89.90;;;;;;5055499;28;20029;-74
2020/12/30 01:07:03;;;;;;;1.00;0.67;;;4.30;90.00;;;;;;5054911;28;20029;-74
2020/12/30 01:09:29;;;;;;;3.97;0.97;;;4.30;90.10;;;;;;5054168;28;20025;-73
2020/12/30 01:11:59;;;;;;;3.63;1.00;;;4.40;90.10;;;;;;5054752;28;20051;-74
2020/12/30 01:14:25;;;;;;;2.47;1.10;;;4.40;90.00;;;;;;5055083;28;20032;-74
2020/12/30 01:16:51;;;;;;;2.70;0.90;;;4.50;90.00;;;;;;5054672;28;20025;-73
2020/12/30 01:19:18;;;;;;;9.43;1.10;;;4.40;90.00;;;;;;5054706;28;20103;-74
2020/12/30 01:21:44;;;;;;;4.83;1.07;;;4.40;90.00;;;;;;5055190;28;20053;-73
2020/12/30 01:24:10;;;;;;;4.27;1.60;;;4.40;89.90;;;;;;5054476;28;20036;-74
2020/12/30 01:26:36;;;;;;;5.00;0.90;;;4.50;90.00;;;;;;5055153;28;20104;-74
2020/12/30 01:29:04;;;;;;;4.00;1.00;;;4.50;89.90;;;;;;5054417;28;20183;-74
2020/12/30 01:31:31;;;;;;;3.60;1.00;;;4.50;89.90;;;;;;5055097;28;20481;-73
2020/12/30 01:33:57;;;;;;;1.77;0.90;;;4.50;90.00;;;;;;5054284;28;20116;-74
2020/12/30 01:36:23;;;;;;;2.03;0.70;;;4.50;90.10;;;;;;5054260;28;20467;-74
2020/12/30 01:38:49;;;;;;;3.20;1.00;;;4.50;90.10;;;;;;5054224;28;20033;-74
2020/12/30 01:41:16;;;;;;;3.57;0.87;;;4.50;90.10;;;;;;5054063;28;20029;-74
2020/12/30 01:43:55;;;;;;;4.97;1.00;;;4.50;90.10;;;;;;5055040;28;20033;-74
2020/12/30 01:46:39;;;;;;;3.43;1.37;;;4.60;90.10;;;;;;5054255;28;20115;-74
2020/12/30 01:49:32;;;;;;;5.30;1.10;;;4.50;90.10;;;;;;5055377;28;20032;-74
2020/12/30 01:52:00;;;;;;;3.30;1.00;;;4.60;90.10;;;;;;5052498;28;20040;-74
2020/12/30 01:54:28;;;;;;;3.60;0.77;;;4.50;90.00;;;;;;5053501;28;20024;-73
2020/12/30 01:56:53;;;;;;;4.60;0.97;;;4.60;90.10;;;;;;5055107;28;20032;-74
2020/12/30 01:59:19;;;;;;;4.47;1.13;;;4.60;90.30;;;;;;5053779;28;20021;-74
2020/12/30 02:02:04;;;;;;;4.43;0.90;;;4.60;89.80;;;;;;5053141;28;20036;-73
2020/12/30 02:04:50;;;;;;;1.30;0.73;;;4.60;89.70;;;;;;5053154;28;20029;-73
2020/12/30 02:07:16;;;;;;;1.30;0.80;;;4.70;89.50;;;;;;5055065;28;20032;-74
2020/12/30 02:09:43;;;;;;;3.03;0.87;;;4.70;89.50;;;;;;5052468;28;20119;-73
2020/12/30 02:12:10;;;;;;;2.73;0.87;;;4.70;89.50;;;;;;5053721;28;20481;-74
2020/12/30 02:14:36;;;;;;;2.33;0.73;;;4.60;89.30;;;;;;5054167;28;20022;-73
2020/12/30 02:17:02;;;;;;;2.13;0.70;;;4.60;89.50;;;;;;5054785;28;20054;-74
2020/12/30 02:19:28;;;;;;;5.60;0.80;;;4.60;89.30;;;;;;5054110;28;20023;-73
2020/12/30 02:22:02;;;;;;;2.53;0.70;;;4.70;89.10;;;;;;5053181;28;20498;-74
2020/12/30 02:24:32;;;;;;;4.47;1.00;;;4.70;89.00;;;;;;5052742;28;20120;-73
2020/12/30 02:26:59;;;;;;;1.43;0.70;;;4.70;89.20;;;;;;5053606;28;20060;-74
2020/12/30 02:29:25;;;;;;;1.37;0.63;;;4.70;89.00;;;;;;5054562;28;20021;-74
2020/12/30 02:31:51;;;;;;;2.87;1.00;;;4.70;89.00;;;;;;5054502;28;20033;-74
2020/12/30 02:34:17;;;;;;;1.00;0.60;;;4.70;88.80;;;;;;5053325;28;20425;-74
2020/12/30 02:36:43;;;;;;;2.27;0.60;;;4.70;88.90;;;;;;5053767;28;20576;-74
2020/12/30 02:39:09;;;;;;;2.67;1.00;;;4.70;89.00;;;;;;5054383;28;20351;-74
2020/12/30 02:41:35;;;;;;;1.47;0.63;;;4.60;88.70;;;;;;5052353;28;20040;-73
2020/12/30 02:44:02;;;;;;;3.67;0.57;;;4.70;89.20;;;;;;5054269;28;20462;-74
2020/12/30 02:46:28;;;;;;;3.67;0.80;;;4.70;88.10;;;;;;5053631;28;20025;-73
2020/12/30 02:48:54;;;;;;;1.73;0.50;;;4.80;87.90;;;;;;5053008;28;20163;-73
2020/12/30 02:51:20;;;;;;;2.07;0.50;;;4.80;87.80;;;;;;5052908;28;20044;-74
2020/12/30 02:53:45;;;;;;;2.20;0.50;;;4.80;87.60;;;;;;5053451;28;20032;-73
2020/12/30 02:56:11;;;;;;;2.97;0.93;;;4.80;87.60;;;;;;5052795;28;20025;-74
2020/12/30 02:58:37;;;;;;;1.33;0.40;;;4.80;87.60;;;;;;5052109;28;20113;-73
2020/12/30 03:01:08;;;;;;;0.67;0.50;;;4.80;87.60;;;;;;5053863;28;20036;-74
2020/12/30 03:03:34;;;;;;;1.80;0.50;;;4.80;87.60;;;;;;5052067;28;20047;-73
2020/12/30 03:05:59;;;;;;;3.10;0.70;;;4.80;87.40;;;;;;5052561;28;20033;-74
2020/12/30 03:08:25;;;;;;;2.43;0.53;;;4.80;87.20;;;;;;5053835;28;20424;-74
2020/12/30 03:10:50;;;;;;;1.80;0.67;;;4.80;87.00;;;;;;5053426;28;20021;-73
2020/12/30 03:13:16;;;;;;;1.83;0.60;;;4.80;87.10;;;;;;5053690;28;20079;-74
2020/12/30 03:15:42;;;;;;;3.20;0.70;;;4.80;87.10;;;;;;5053070;28;20029;-73
2020/12/30 03:18:07;;;;;;;1.70;0.60;;;4.80;87.10;;;;;;5052462;28;20382;-74
2020/12/30 03:20:33;;;;;;;1.77;0.50;;;4.90;87.20;;;;;;5053011;28;20481;-74
2020/12/30 03:22:58;;;;;;;2.47;0.57;;;4.90;87.30;;;;;;5050960;28;20057;-74
2020/12/30 03:25:24;;;;;;;2.07;0.50;;;4.80;88.00;;;;;;5053495;28;20440;-74
2020/12/30 03:27:50;;;;;;;0.73;0.30;;;4.80;87.10;;;;;;5051587;28;20040;-74
2020/12/30 03:30:15;;;;;;;1.40;0.83;;;4.80;87.20;;;;;;5052166;28;20525;-74
2020/12/30 03:32:41;;;;;;;1.73;0.30;;;4.80;87.30;;;;;;5052661;28;20539;-74
2020/12/30 03:35:06;;;;;;;1.17;0.70;;;4.70;87.30;;;;;;5052078;28;20044;-74
2020/12/30 03:37:32;;;;;;;1.80;0.63;;;4.80;87.40;;;;;;5051415;28;20474;-73
2020/12/30 03:39:59;;;;;;;2.63;0.60;;;4.80;87.40;;;;;;5051951;28;20021;-74
2020/12/30 03:42:24;;;;;;;1.60;0.67;;;4.80;87.40;;;;;;5051971;28;20029;-74
2020/12/30 03:44:50;;;;;;;1.70;0.50;;;4.80;87.60;;;;;;5052248;28;20666;-74
2020/12/30 03:47:16;;;;;;;3.90;0.60;;;4.80;88.00;;;;;;5052880;28;20466;-74
2020/12/30 03:49:42;;;;;;;3.17;0.60;;;4.80;87.90;;;;;;5052367;28;20382;-73
2020/12/30 03:52:07;;;;;;;2.17;0.60;;;4.80;88.10;;;;;;5052997;28;20103;-74
2020/12/30 03:54:33;;;;;;;1.17;0.50;;;4.80;88.10;;;;;;5052057;28;20025;-73
2020/12/30 03:56:59;;;;;;;1.03;0.43;;;4.70;88.20;;;;;;5052960;28;20025;-74
2020/12/30 03:59:24;;;;;;;1.53;0.53;;;4.70;88.20;;;;;;5052916;28;20425;-74
2020/12/30 04:01:50;;;;;;;1.40;0.60;;;4.70;88.30;;;;;;5052141;28;20029;-73
2020/12/30 04:04:16;;;;;;;0.83;0.40;;;4.70;88.30;;;;;;5052881;28;20130;-74
2020/12/30 04:06:42;;;;;;;3.47;0.73;;;4.70;88.40;;;;;;5052477;28;20032;-74
2020/12/30 04:09:08;;;;;;;2.70;0.57;;;4.70;88.60;;;;;;5052753;28;20055;-73
2020/12/30 04:11:34;;;;;;;2.13;0.40;;;4.70;88.70;;;;;;5050863;28;20068;-73
2020/12/30 04:13:59;;;;;;;1.00;0.47;;;4.70;88.60;;;;;;5052663;28;20025;-74
2020/12/30 04:16:25;;;;;;;1.27;0.60;;;4.60;88.20;;;;;;5051427;28;20032;-74
2020/12/30 04:18:52;;;;;;;1.13;0.40;;;4.60;88.00;;;;;;5050733;28;20032;-74
2020/12/30 04:21:21;;;;;;;3.60;0.80;;;4.60;88.10;;;;;;5052094;28;20060;-73
2020/12/30 04:23:48;;;;;;;1.27;0.70;;;4.60;88.00;;;;;;5052038;28;20044;-74
2020/12/30 04:26:14;;;;;;;1.57;0.60;;;4.60;87.80;;;;;;5051237;28;20021;-74
2020/12/30 04:28:40;;;;;;;2.10;0.80;;;4.50;87.80;;;;;;5052267;28;20040;-73
2020/12/30 04:31:09;;;;;;;2.13;0.60;;;4.60;87.60;;;;;;5051130;28;20036;-73
2020/12/30 04:33:35;;;;;;;3.77;0.67;;;4.60;87.20;;;;;;5050312;28;20029;-73
2020/12/30 04:36:01;;;;;;;6.30;1.27;;;4.60;87.10;;;;;;5052398;28;20025;-73
2020/12/30 04:38:26;;;;;;;2.23;0.40;;;4.60;86.80;;;;;;5052776;28;20029;-74
2020/12/30 04:41:01;;;;;;;2.80;0.80;;;4.60;86.70;;;;;;5050619;28;20033;-74
2020/12/30 04:43:33;;;;;;;1.07;0.40;;;4.60;86.70;;;;;;5051183;28;20032;-74
2020/12/30 04:45:59;;;;;;;;;;;4.60;86.30;;;;;;5050886;28;20096;-74
2020/12/30 04:48:26;;;;;;;1.93;0.60;;;4.70;86.10;;;;;;5051059;28;19939;-74
2020/12/30 04:50:52;;;;;;;2.63;0.80;;;4.70;86.10;;;;;;5050161;28;20033;-74
2020/12/30 04:53:22;;;;;;;2.33;0.67;;;4.70;86.00;;;;;;5051120;28;20029;-74
2020/12/30 04:55:49;;;;;;;2.23;0.70;;;4.70;86.00;;;;;;5051951;28;20083;-74
2020/12/30 04:58:17;;;;;;;3.97;0.73;;;4.70;85.90;;;;;;5051263;28;20458;-74
2020/12/30 05:00:43;;;;;;;1.70;0.70;;;4.70;85.80;;;;;;5050384;28;20029;-74
2020/12/30 05:03:13;;;;;;;2.23;1.00;;;4.70;85.80;;;;;;5050892;28;20091;-73
2020/12/30 05:05:40;;;;;;;2.70;0.73;;;4.70;85.80;;;;;;5050258;28;20029;-73
2020/12/30 05:08:11;;;;;;;5.83;1.00;;;4.70;85.70;;;;;;5052243;28;20032;-74
2020/12/30 05:10:39;;;;;;;2.23;0.80;;;4.70;85.80;;;;;;5051451;28;20025;-73
2020/12/30 05:13:05;;;;;;;2.73;1.10;;;4.70;85.70;;;;;;5052108;28;20095;-74
2020/12/30 05:15:31;;;;;;;1.33;0.60;;;4.70;85.80;;;;;;5052066;28;20029;-74
2020/12/30 05:17:57;;;;;;;4.33;0.90;;;4.70;86.00;;;;;;5050190;28;20091;-73
2020/12/30 05:20:26;;;;;;;5.37;1.00;;;4.60;86.00;;;;;;5052068;28;20059;-73
2020/12/30 05:22:53;;;;;;;1.20;0.60;;;4.60;86.00;;;;;;5049787;28;20056;-74
2020/12/30 05:25:24;;;;;;;2.20;0.70;;;4.60;86.10;;;;;;5050713;28;20082;-74
2020/12/30 05:27:51;;;;;;;2.10;0.80;;;4.70;86.10;;;;;;5050202;28;20471;-74
2020/12/30 05:30:16;;;;;;;1.90;0.90;;;4.70;85.90;;;;;;5050776;28;20116;-74
2020/12/30 05:32:42;;;;;;;2.37;0.87;;;4.60;85.70;;;;;;5051097;28;20455;-73
2020/12/30 05:35:08;;;;;;;1.77;0.97;;;4.60;85.90;;;;;;5050658;28;20036;-73
2020/12/30 05:37:35;;;;;;;2.80;1.00;;;4.60;86.00;;;;;;5051843;28;20028;-74
2020/12/30 05:40:01;;;;;;;4.23;1.07;;;4.60;85.90;;;;;;5050075;28;20383;-73
2020/12/30 05:42:27;;;;;;;3.57;1.00;;;4.60;85.80;;;;;;5050595;28;20355;-74
2020/12/30 05:44:56;;;;;;;1.37;0.60;;;4.60;85.80;;;;;;5051543;28;20033;-74
2020/12/30 05:47:25;;;;;;;2.00;1.10;;;4.60;85.80;;;;;;5055693;28;20025;-73
2020/12/30 05:49:57;;;;;;;3.23;0.80;;;4.70;85.80;;;;;;5054470;28;20040;-73
2020/12/30 05:52:25;;;;;;;1.27;0.70;;;4.70;85.50;;;;;;5054051;28;20231;-74
2020/12/30 05:54:55;;;;;;;1.90;0.90;;;4.70;85.50;;;;;;5054634;28;20116;-74
2020/12/30 05:57:25;;;;;;;4.70;0.97;;;4.70;85.50;;;;;;5055197;28;20032;-73
2020/12/30 05:59:53;;;;;;;1.90;0.90;;;4.70;85.40;;;;;;5054644;28;20028;-73
2020/12/30 06:02:27;;;;;;;2.17;1.00;;;4.70;85.40;;;;;;5055055;28;20104;-74
2020/12/30 06:04:54;;;;;;;1.43;1.10;;;4.70;86.00;;;;;;5053320;28;20502;-74
2020/12/30 06:07:20;;;;;;;1.23;0.67;;;4.70;85.40;;;;;;5055018;28;20017;-74
2020/12/30 06:09:54;;;;;;;1.77;0.80;;;4.70;85.00;;;;;;5086708;28;20117;-74
2020/12/30 06:12:27;;;;;;;2.97;1.07;;;4.70;85.40;;;;;;5053754;28;20174;-74
2020/12/30 06:14:54;;;;;;;4.77;0.80;;;4.70;85.50;;;;;;5053083;28;20033;-74
2020/12/30 06:17:28;;;;;;;3.47;0.90;;;4.70;85.40;;;;;;5053524;28;20032;-74
2020/12/30 06:19:54;;;;;;;2.20;0.80;;;4.60;85.30;;;;;;5052947;28;20072;-73
2020/12/30 06:22:21;;;;;;;2.00;0.70;;;4.60;85.30;;;;;;5054547;28;20057;-74
2020/12/30 06:24:51;;;;;;;3.37;1.17;;;4.60;85.90;;;;;;5052823;28;20029;-73
2020/12/30 06:27:23;;;;;;;3.33;0.73;;;4.60;85.70;;;;;;5053408;28;20179;-73
2020/12/30 06:29:52;;;;;;;2.78;0.70;;;4.50;85.90;;;;;;5053981;28;20102;-73
2020/12/30 06:32:36;;;;;;;1.73;0.57;;;4.50;85.90;;;;;;5053250;28;20033;-74
2020/12/30 06:35:02;;;;;;;1.43;0.77;;;4.60;86.00;;;;;;5052682;28;20123;-73
2020/12/30 06:37:30;;;;;;;2.47;0.97;;;4.60;85.80;;;;;;5054468;28;20029;-74
2020/12/30 06:40:22;;;;;;;1.93;0.87;;;4.60;85.70;;;;;;5053779;28;20036;-73
2020/12/30 06:42:55;;;;;;;0.77;0.43;;;4.60;85.30;;;;;;5053738;28;20021;-74
2020/12/30 06:45:42;;;;;;;2.63;1.20;;;4.60;85.50;;;;;;5054329;28;20254;-73
2020/12/30 06:48:12;;;;;;;2.70;1.07;;;4.60;85.50;;;;;;5054237;28;20485;-73
2020/12/30 06:50:39;;;;;;;1.90;0.70;;;4.70;85.40;;;;;;5052878;28;20039;-74
2020/12/30 06:53:31;;;;;;;6.10;1.03;;;4.70;85.60;;;;;;5053542;28;20108;-73
2020/12/30 06:55:59;;;;;;;2.10;0.90;;;4.70;85.50;;;;;;5053479;28;20075;-74
2020/12/30 06:58:50;;;;;;;3.93;0.80;;;4.70;85.50;;;;;;5052773;28;20488;-74
2020/12/30 07:01:17;;;;;;;1.40;0.60;;;4.70;85.40;;;;;;5053880;28;20028;-74
2020/12/30 07:03:44;;;;;;;1.90;0.87;;;4.70;85.50;;;;;;5052138;28;20068;-74
2020/12/30 07:06:27;;;;;;;2.20;0.80;;;4.70;85.70;;;;;;5053908;28;20052;-74
2020/12/30 07:08:54;;;;;;;4.80;1.10;;;4.60;85.80;;;;;;5051917;28;20028;-73
2020/12/30 07:11:46;;;;;;;1.73;0.60;;;4.60;85.80;;;;;;5053566;28;20021;-74
2020/12/30 07:14:16;;;;;;;3.83;1.33;;;4.60;85.80;;;;;;5051227;28;20036;-74
2020/12/30 07:16:46;;;;;;;4.20;1.03;;;4.60;85.80;;;;;;5052474;28;20025;-74
2020/12/30 07:19:14;;;;;;;4.27;1.00;;;4.70;85.80;;;;;;5052724;28;20021;-73
2020/12/30 07:21:58;;;;;;;2.60;0.90;;;4.70;85.80;;;;;;5053461;28;20057;-74
2020/12/30 07:24:28;;;;;;;4.37;1.07;;;4.70;85.90;;;;;;5052468;28;20063;-74
2020/12/30 07:26:56;;;;;;;5.17;0.83;;;4.60;85.80;;;;;;5051689;28;20083;-73
2020/12/30 07:29:22;;;;;;;1.57;0.83;;;4.70;85.80;;;;;;5053439;28;20033;-73
2020/12/30 07:31:54;;;;;;;1.43;0.70;;;4.60;85.70;;;;;;5051441;28;20028;-73
2020/12/30 07:34:21;;;;;;;1.83;0.77;;;4.60;85.80;;;;;;5052175;28;20082;-74
2020/12/30 07:36:48;;;;;;;2.37;0.77;;;4.60;86.00;;;;;;5052682;28;20040;-73
2020/12/30 07:39:21;;;;;;;1.87;0.73;;;4.60;86.10;;;;;;5052270;28;20025;-74
2020/12/30 07:41:46;;;;;;;2.03;0.60;;;4.60;86.10;;;;;;5052571;28;20458;-73
2020/12/30 07:44:13;;;;;;;2.47;0.70;;;4.60;86.10;;;;;;5051944;28;20101;-74
2020/12/30 07:46:39;;;;;;;1.87;0.73;;;4.60;86.90;;;;;;5051829;28;20074;-74
2020/12/30 07:49:22;;;;;;;1.97;0.70;;;4.60;86.30;;;;;;5052531;28;20047;-74
2020/12/30 07:51:55;;;;;;;2.77;0.90;;;4.60;86.50;;;;;;5051200;28;20029;-74
2020/12/30 07:54:22;;;;;;;2.33;0.93;;;4.50;86.60;;;;;;5053116;28;20082;-74
2020/12/30 07:56:49;;;;;;;2.63;0.90;;;4.50;86.60;;;;;;5052337;28;20030;-73
2020/12/30 07:59:23;;;;;;;1.83;0.90;;;4.50;86.50;;;;;;5052934;28;20029;-74
2020/12/30 08:02:02;;;;;;;2.47;0.97;;;4.50;86.60;;;;;;5052151;28;20041;-73
2020/12/30 08:04:29;;;;;;;2.00;0.90;;;4.50;86.60;;;;;;5052821;28;20025;-74
2020/12/30 08:06:55;;;;;;;3.73;0.87;;;4.50;86.70;;;;;;5050965;28;20500;-73
2020/12/30 08:09:29;;;;;;;3.23;0.70;;;4.60;86.70;;;;;;5050986;28;20025;-74
2020/12/30 08:12:00;;;;;;;4.23;0.87;;;4.60;86.50;;;;;;5052087;28;20025;-74
2020/12/30 08:14:27;;;;;;;2.83;1.00;;;4.60;86.50;;;;;;5052779;28;20029;-74
2020/12/30 08:17:07;;;;;;;3.93;0.77;;;4.60;86.30;;;;;;5050738;28;20024;-73
2020/12/30 08:19:50;;;;;;;4.83;0.43;;;4.60;86.30;;;;;;5052552;28;20029;-73
2020/12/30 08:22:20;;;;;;;;;;;4.70;86.40;;;;;;5052664;28;20061;-74
2020/12/30 08:24:51;;;;;;;1.87;0.80;;;4.70;86.30;;;;;;5052789;28;19928;-74
2020/12/30 08:27:21;;;;;;;2.67;0.73;;;4.60;86.40;;;;;;5052904;28;20031;-74
2020/12/30 08:29:48;;;;;;;4.60;1.20;;;4.70;86.40;;;;;;5051238;28;20025;-74
2020/12/30 08:32:28;;;;;;;2.17;1.00;;;4.70;86.50;;;;;;5051168;28;20535;-74
2020/12/30 08:34:56;;;;;;;4.10;1.30;;;4.70;86.10;;;;;;5052153;28;20029;-75
2020/12/30 08:37:29;;;;;;;4.40;1.30;;;4.70;86.30;;;;;;5052417;28;20378;-74
2020/12/30 08:40:00;;;;;;;1.70;0.87;;;4.70;86.10;;;;;;5050640;28;20052;-73
2020/12/30 08:42:47;;;;;;;1.40;0.93;;;4.80;86.10;;;;;;5051057;28;20504;-74
2020/12/30 08:45:14;;;;;;;3.33;1.00;;;4.80;86.50;;;;;;5050551;28;20069;-74
2020/12/30 08:47:41;;;;;;;2.73;0.60;;;4.90;85.90;;;;;;5051993;28;20049;-74
2020/12/30 08:50:08;;;;;;;2.00;0.80;;;5.00;86.10;;;;;;5050267;28;20036;-74
2020/12/30 08:52:43;;;;;;;6.60;3.03;;;5.00;85.60;;;;;;5050988;28;20135;-74
2020/12/30 08:55:10;;;;;;;3.97;1.00;;;5.10;85.60;;;;;;5051706;28;20103;-73
2020/12/30 08:57:42;;;;;;;1.97;0.60;;;5.10;85.30;;;;;;5052229;28;20108;-74
2020/12/30 09:00:15;;;;;;;1.55;1.20;;;5.10;85.80;;;;;;5050412;28;20036;-73
2020/12/30 09:02:41;;;;;;;4.00;0.90;;;5.20;85.90;;;;;;5052170;28;20032;-74
2020/12/30 09:05:07;;;;;;;2.03;0.90;;;5.20;85.30;;;;;;5050371;28;20029;-74
2020/12/30 09:07:33;;;;;;;1.27;0.77;;;5.20;85.60;;;;;;5050894;28;20165;-74
2020/12/30 09:10:09;;;;;;;1.73;1.00;;;5.30;85.20;;;;;;5050175;28;20048;-74
2020/12/30 09:12:36;;;;;;;4.20;1.77;;;5.30;85.10;;;;;;5050792;28;20025;-74
2020/12/30 09:15:02;;;;;;;5.13;1.27;;;5.20;85.30;;;;;;5050250;28;20098;-74
2020/12/30 09:17:28;;;;;;;4.50;1.73;;;5.20;85.60;;;;;;5051749;28;20025;-74
2020/12/30 09:20:15;;;;;;;3.37;1.10;;;5.20;85.80;;;;;;5050758;28;20040;-74
2020/12/30 09:22:42;;;;;;;2.23;1.10;;;5.20;86.00;;;;;;5054255;28;20049;-74
2020/12/30 09:25:23;;;;;;;3.40;1.47;;;5.20;85.90;;;;;;5053901;28;20025;-74
2020/12/30 09:27:49;;;;;;;3.17;1.40;;;5.20;86.30;;;;;;5054553;28;20124;-74
2020/12/30 09:30:17;;;;;;;2.03;1.00;;;5.10;86.10;;;;;;5055091;28;20112;-74
2020/12/30 09:32:44;;;;;;;4.30;1.47;;;5.20;86.30;;;;;;5055694;28;20037;-74
2020/12/30 09:35:12;;;;;;;2.77;1.20;;;5.20;86.00;;;;;;5053640;28;20520;-74
2020/12/30 09:37:39;;;;;;;2.33;1.00;;;5.20;85.90;;;;;;5054288;28;20390;-74
2020/12/30 09:40:13;;;;;;;3.50;1.30;;;5.20;85.80;;;;;;5054944;28;20108;-73
2020/12/30 09:42:41;;;;;;;4.17;1.70;;;5.20;86.00;;;;;;5054199;28;20494;-74
2020/12/30 09:45:10;;;;;;;5.33;1.50;;;5.20;86.10;;;;;;5053587;28;20452;-74
2020/12/30 09:47:36;;;;;;;3.90;1.30;;;5.20;86.10;;;;;;5055376;28;20029;-74
2020/12/30 09:50:06;;;;;;;4.87;1.30;;;5.30;85.50;;;;;;5054779;28;20028;-74
2020/12/30 09:52:50;;;;;;;2.20;1.37;;;5.30;85.20;;;;;;5055481;28;20037;-73
2020/12/30 09:55:16;;;;;;;3.17;1.37;;;5.30;85.80;;;;;;5054676;28;20025;-74
2020/12/30 09:57:42;;;;;;;3.80;1.23;;;5.30;85.70;;;;;;5055229;28;20484;-74
2020/12/30 10:00:09;;;;;;;3.70;1.20;;;5.30;85.40;;;;;;5053372;28;20043;-73
2020/12/30 10:02:35;;;;;;;4.07;1.20;;;5.30;85.90;;;;;;5055007;28;20458;-73
2020/12/30 10:05:00;;;;;;;2.57;1.23;;;5.40;84.80;;;;;;5054486;28;20036;-73
2020/12/30 10:07:26;;;;;;;2.67;1.37;;;5.40;84.40;;;;;;5053841;28;20468;-74
2020/12/30 10:09:53;;;;;;;4.43;1.30;;;5.50;84.30;;;;;;5053671;28;20532;-74
2020/12/30 10:12:23;;;;;;;3.57;1.10;;;5.50;84.00;;;;;;5053717;28;20481;-74
2020/12/30 10:14:50;;;;;;;2.90;1.20;;;5.40;83.60;;;;;;5053574;28;20029;-73
2020/12/30 10:17:15;;;;;;;4.30;1.37;;;5.40;83.60;;;;;;5054249;28;20032;-74
2020/12/30 10:19:41;;;;;;;3.43;0.83;;;5.50;83.70;;;;;;5054715;28;20029;-74
2020/12/30 10:22:08;;;;;;;4.17;0.90;;;5.50;83.00;;;;;;5052545;28;20436;-73
2020/12/30 10:24:34;;;;;;;4.63;1.10;;;5.50;83.10;;;;;;5054687;28;20029;-74
2020/12/30 10:27:00;;;;;;;4.03;0.97;;;5.50;83.40;;;;;;5054049;28;20032;-73
2020/12/30 10:29:28;;;;;;;3.33;0.90;;;5.50;83.10;;;;;;5053575;28;20028;-73
2020/12/30 10:31:57;;;;;;;1.47;0.80;;;5.50;82.80;;;;;;5054134;28;20466;-74
2020/12/30 10:34:23;;;;;;;3.73;0.90;;;5.50;83.70;;;;;;5053201;28;20033;-74
2020/12/30 10:36:49;;;;;;;2.07;0.70;;;5.50;84.00;;;;;;5053263;28;20497;-74
2020/12/30 10:39:15;;;;;;;3.87;1.00;;;5.50;83.00;;;;;;5053778;28;20783;-73
2020/12/30 10:41:41;;;;;;;7.23;1.10;;;5.50;83.20;;;;;;5054312;28;20032;-73
2020/12/30 10:44:06;;;;;;;2.57;0.50;;;5.60;83.30;;;;;;5052390;28;20167;-74
2020/12/30 10:46:32;;;;;;;2.73;0.93;;;5.60;83.20;;;;;;5054282;28;20067;-74
2020/12/30 10:48:58;;;;;;;2.63;1.10;;;5.60;83.20;;;;;;5052350;28;20033;-73
2020/12/30 10:51:23;;;;;;;4.07;1.03;;;5.60;83.10;;;;;;5052814;28;20048;-74
2020/12/30 10:53:49;;;;;;;3.40;0.90;;;5.60;83.30;;;;;;5052859;28;20029;-74
2020/12/30 10:56:15;;;;;;;1.57;0.90;;;5.60;83.00;;;;;;5053472;28;20029;-74
2020/12/30 10:58:41;;;;;;;2.10;0.90;;;5.60;82.50;;;;;;5054347;28;20462;-74
2020/12/30 11:01:12;;;;;;;1.77;1.10;;;5.60;83.80;;;;;;5052037;28;20116;-74
2020/12/30 11:03:39;;;;;;;1.43;0.63;;;5.70;83.40;;;;;;5052692;28;20031;-73
2020/12/30 11:06:05;;;;;;;1.80;1.13;;;5.70;83.00;;;;;;5052049;28;20036;-73
2020/12/30 11:08:31;;;;;;;3.20;1.30;;;5.70;82.90;;;;;;5052642;28;20025;-74
2020/12/30 11:10:58;;;;;;;4.47;1.30;;;5.70;83.00;;;;;;5053574;28;20025;-74
2020/12/30 11:13:25;;;;;;;3.60;1.00;;;5.80;82.90;;;;;;5053758;28;20036;-74
2020/12/30 11:15:51;;;;;;;3.70;1.07;;;5.70;82.30;;;;;;5053686;28;20082;-74
2020/12/30 11:18:16;;;;;;;2.90;1.17;;;5.70;82.40;;;;;;5053086;28;20024;-74
2020/12/30 11:20:42;;;;;;;3.47;1.30;;;5.70;83.10;;;;;;5052304;28;20031;-74
2020/12/30 11:23:08;;;;;;;1.70;1.00;;;5.60;82.60;;;;;;5052929;28;20049;-75
2020/12/30 11:25:34;;;;;;;2.33;0.90;;;5.60;83.00;;;;;;5052380;28;20032;-74
2020/12/30 11:28:01;;;;;;;2.83;0.87;;;5.60;82.90;;;;;;5051638;28;20025;-73
2020/12/30 11:30:27;;;;;;;3.90;1.03;;;5.60;83.00;;;;;;5052088;28;20029;-74
2020/12/30 11:32:53;;;;;;;3.63;1.00;;;5.60;82.90;;;;;;5052075;28;20033;-74
2020/12/30 11:35:18;;;;;;;3.63;1.30;;;5.60;82.70;;;;;;5051433;28;20151;-74
2020/12/30 11:37:44;;;;;;;2.73;1.00;;;5.60;83.00;;;;;;5052998;28;20033;-74
2020/12/30 11:40:10;;;;;;;3.33;1.13;;;5.60;82.40;;;;;;5051346;28;20385;-74
2020/12/30 11:42:35;;;;;;;2.67;1.20;;;5.60;82.40;;;;;;5052306;28;20036;-74
2020/12/30 11:45:01;;;;;;;3.67;1.30;;;5.50;82.50;;;;;;5051302;28;20033;-73
2020/12/30 11:47:26;;;;;;;3.37;1.20;;;5.60;83.20;;;;;;5053354;28;20101;-73
2020/12/30 11:49:52;;;;;;;3.03;1.37;;;5.70;82.50;;;;;;5053003;28;20025;-74
2020/12/30 11:52:18;;;;;;;3.50;1.37;;;5.60;82.60;;;;;;5052454;28;20069;-73
2020/12/30 11:54:44;;;;;;;3.03;1.27;;;5.70;82.70;;;;;;5053005;28;20049;-74
2020/12/30 11:57:10;;;;;;;3.37;1.50;;;5.60;82.60;;;;;;5051072;28;20080;-74
2020/12/30 11:59:36;;;;;;;5.03;1.40;;;5.70;83.00;;;;;;5052919;28;20021;-74
2020/12/30 12:02:01;;;;;;;4.13;1.50;;;5.80;82.50;;;;;;5051036;28;20487;-73
2020/12/30 12:04:27;;;;;;;2.63;1.40;;;5.70;81.90;;;;;;5052668;28;20035;-74
2020/12/30 12:06:57;;;;;;;4.57;1.47;;;5.70;82.10;;;;;;5051598;28;20029;-74
2020/12/30 12:09:23;;;;;;;4.20;1.40;;;5.80;82.30;;;;;;5050961;28;20107;-73
2020/12/30 12:11:49;;;;;;;4.60;1.50;;;5.70;82.20;;;;;;5051550;28;20490;-74
2020/12/30 12:14:14;;;;;;;2.13;1.40;;;5.80;82.20;;;;;;5050801;28;20467;-73
2020/12/30 12:16:40;;;;;;;4.60;1.50;;;5.70;82.30;;;;;;5051388;28;20076;-74
2020/12/30 12:19:05;;;;;;;5.90;2.00;;;5.70;82.30;;;;;;5050811;28;20092;-74
2020/12/30 12:21:31;;;;;;;3.60;1.80;;;5.70;82.00;;;;;;5052138;28;20488;-74
2020/12/30 12:23:57;;;;;;;3.90;2.27;;;5.70;82.50;;;;;;5052618;28;20059;-74
2020/12/30 12:26:28;;;;;;;3.03;1.40;;;5.70;82.20;;;;;;5051943;28;20025;-74
2020/12/30 12:28:53;;;;;;;4.55;2.30;;;5.80;82.00;;;;;;5051392;28;20052;-74
2020/12/30 12:31:19;;;;;;;2.90;1.80;;;5.80;82.00;;;;;;5051853;28;20463;-73
2020/12/30 12:33:45;;;;;;;2.67;1.60;;;5.70;82.30;;;;;;5051353;28;20525;-74
2020/12/30 12:36:11;;;;;;;5.53;1.87;;;5.70;82.30;;;;;;5050560;28;20071;-73
2020/12/30 12:38:36;;;;;;;2.93;1.43;;;5.60;82.60;;;;;;5051103;28;20079;-74
2020/12/30 12:41:03;;;;;;;2.43;1.40;;;5.60;82.30;;;;;;5052204;28;20466;-74
2020/12/30 12:43:28;;;;;;;2.93;1.67;;;5.60;82.10;;;;;;5052291;28;20037;-74
2020/12/30 12:45:54;;;;;;;3.47;1.77;;;5.70;82.10;;;;;;5051028;28;20075;-74
2020/12/30 12:48:19;;;;;;;3.40;2.00;;;5.60;82.30;;;;;;5052035;28;20108;-74
2020/12/30 12:50:46;;;;;;;1.90;1.57;;;5.60;82.70;;;;;;5050915;28;20120;-73
2020/12/30 12:53:11;;;;;;;3.10;1.90;;;5.60;82.70;;;;;;5050145;28;20037;-73
2020/12/30 12:55:37;;;;;;;8.50;2.63;;;5.60;82.40;;;;;;5054374;28;20028;-73
2020/12/30 12:58:03;;;;;;;3.97;1.57;;;5.60;82.60;;;;;;5056006;28;20198;-74
2020/12/30 13:00:28;;;;;;;4.40;1.73;;;5.60;82.30;;;;;;5054651;28;20021;-74
2020/12/30 13:02:54;;;;;;;3.93;2.00;;;5.60;82.60;;;;;;5054744;28;20040;-74